Time;durP1;ratioP1;P1;durP2;ratioP2;P2;SDS_P1;SDS_P2;PMS_P1;PMS_P2;Temp;Humidity;BMP_temperature;BMP_pressure;BME280_temperature;BME280_humidity;BME280_pressure;Samples;Min_cycle;Max_cycle;Signal;HPM_P1;HPM_P2
2022/01/20 00:03:31;;;;;;;41.40;10.50;;;4.60;99.90;;;;;;4974525;28;20540;-80
2022/01/20 00:28:01;;;;;;;30.10;8.43;;;4.20;99.90;;;;;;4978275;28;20551;-81
2022/01/20 00:30:41;;;;;;;30.38;10.30;;;4.10;99.90;;;;;;4978509;28;20546;-80
2022/01/20 00:38:25;;;;;;;32.75;8.30;;;3.90;99.90;;;;;;4959132;28;20255;-80
2022/01/20 00:40:51;;;;;;;26.27;9.50;;;3.80;99.90;;;;;;4977656;28;20188;-81
2022/01/20 00:43:18;;;;;;;30.77;11.18;;;3.80;99.90;;;;;;4977358;28;20231;-81
2022/01/20 00:45:43;;;;;;;25.92;10.65;;;3.70;99.90;;;;;;4977521;28;20204;-81
2022/01/20 00:48:12;;;;;;;30.10;10.40;;;3.70;99.90;;;;;;4977619;28;20181;-81
2022/01/20 00:50:38;;;;;;;33.92;9.05;;;3.70;99.90;;;;;;4945186;28;20262;-80
2022/01/20 00:53:04;;;;;;;29.53;8.87;;;3.70;99.90;;;;;;4977416;28;20191;-82
2022/01/20 00:55:30;;;;;;;29.10;9.77;;;3.60;99.90;;;;;;4977787;28;20216;-82
2022/01/20 00:57:55;;;;;;;26.27;8.70;;;3.60;99.90;;;;;;4977420;28;20653;-82
2022/01/20 01:00:21;;;;;;;28.17;9.50;;;3.60;99.90;;;;;;4977465;28;20217;-81
2022/01/20 01:02:47;;;;;;;19.60;7.87;;;3.50;99.90;;;;;;4975996;28;20215;-81
2022/01/20 01:05:13;;;;;;;30.17;9.33;;;3.40;99.90;;;;;;4977421;28;20213;-81
2022/01/20 01:10:09;;;;;;;29.20;9.05;;;3.50;99.90;;;;;;4977594;28;20176;-80
2022/01/20 01:12:51;;;;;;;34.78;8.93;;;3.20;99.90;;;;;;4976866;28;20209;-82
2022/01/20 01:15:22;;;;;;;35.83;9.75;;;3.30;99.90;;;;;;4977162;28;20204;-81
2022/01/20 01:20:56;;;;;;;30.90;8.13;;;3.20;99.90;;;;;;4977056;28;20231;-81
2022/01/20 01:23:19;;;;;;;36.85;8.00;;;3.30;99.90;;;;;;4976933;28;20215;-81
2022/01/20 01:25:44;;;;;;;25.20;7.90;;;3.30;99.90;;;;;;4975754;28;20669;-81
2022/01/20 01:28:10;;;;;;;25.23;7.50;;;3.30;99.90;;;;;;4976079;28;20184;-81
2022/01/20 01:33:04;;;;;;;34.30;7.30;;;3.30;99.90;;;;;;4976697;28;20200;-81
2022/01/20 01:35:29;;;;;;;22.98;7.03;;;3.10;99.90;;;;;;4976014;28;20212;-81
2022/01/20 01:40:25;;;;;;;19.63;6.00;;;3.00;99.90;;;;;;4977016;28;20190;-81
2022/01/20 01:42:52;;;;;;;31.92;6.15;;;3.10;99.90;;;;;;4976393;28;20192;-81
2022/01/20 01:45:28;;;;;;;17.67;6.05;;;3.00;99.90;;;;;;4976891;28;20246;-81
2022/01/20 01:47:54;;;;;;;24.73;6.13;;;3.00;99.90;;;;;;4977498;28;20214;-81
2022/01/20 01:50:21;;;;;;;30.38;7.20;;;3.10;99.90;;;;;;4977851;28;20202;-81
2022/01/20 01:52:47;;;;;;;28.08;5.32;;;3.20;99.90;;;;;;4978219;28;20255;-81
2022/01/20 01:55:13;;;;;;;39.05;5.75;;;3.20;99.90;;;;;;4975558;28;20185;-81
2022/01/20 01:57:38;;;;;;;19.75;6.43;;;3.10;99.90;;;;;;4976613;28;20206;-81
2022/01/20 02:00:08;;;;;;;28.20;6.63;;;3.20;99.90;;;;;;4976264;28;20599;-81
2022/01/20 02:02:34;;;;;;;27.52;6.28;;;3.20;99.90;;;;;;4975933;28;20197;-81
2022/01/20 02:05:03;;;;;;;26.07;4.93;;;3.30;99.90;;;;;;4976170;28;20203;-81
2022/01/20 02:20:54;;;;;;;26.73;5.72;;;3.50;99.90;;;;;;4975668;28;20262;-81
2022/01/20 02:23:21;;;;;;;21.10;5.23;;;3.60;99.90;;;;;;4975972;28;20275;-81
2022/01/20 02:25:48;;;;;;;23.98;4.90;;;3.60;99.90;;;;;;4975671;28;20263;-81
2022/01/20 02:28:14;;;;;;;24.05;4.72;;;3.60;99.90;;;;;;4975726;28;20192;-80
2022/01/20 02:30:43;;;;;;;17.77;5.83;;;3.60;99.90;;;;;;4975666;28;20173;-81
2022/01/20 02:33:18;;;;;;;21.02;4.30;;;3.60;99.90;;;;;;4975950;28;20556;-81
2022/01/20 02:35:54;;;;;;;26.73;4.88;;;3.60;99.90;;;;;;4975859;28;20179;-81
2022/01/20 02:46:17;;;;;;;29.42;5.07;;;3.60;99.90;;;;;;4974393;28;20214;-81
2022/01/20 02:48:44;;;;;;;16.90;4.03;;;3.50;99.90;;;;;;4974550;28;20287;-81
2022/01/20 02:51:10;;;;;;;17.43;4.70;;;3.50;99.90;;;;;;4973962;28;20204;-83
2022/01/20 02:53:35;;;;;;;22.93;4.47;;;3.50;99.90;;;;;;4975293;28;20179;-81
2022/01/20 02:56:01;;;;;;;11.97;3.73;;;3.50;99.90;;;;;;4958040;28;20776;-84
2022/01/20 02:58:27;;;;;;;15.10;4.17;;;3.40;99.90;;;;;;4975522;28;20188;-83
2022/01/20 03:00:53;;;;;;;22.63;4.73;;;3.40;99.90;;;;;;4973939;28;20212;-83
2022/01/20 03:03:19;;;;;;;23.95;4.47;;;3.40;99.90;;;;;;4974069;28;20454;-83
2022/01/20 03:05:45;;;;;;;15.30;3.60;;;3.40;99.90;;;;;;4974085;28;20207;-80
2022/01/20 03:08:11;;;;;;;19.63;3.40;;;3.40;99.90;;;;;;4975203;28;20468;-81
2022/01/20 03:10:37;;;;;;;25.83;3.50;;;3.50;99.90;;;;;;4973748;28;20181;-81
2022/01/20 03:13:03;;;;;;;18.13;3.90;;;3.40;99.90;;;;;;4973611;28;20697;-81
2022/01/20 03:15:29;;;;;;;28.97;6.00;;;3.50;99.90;;;;;;4973830;28;20200;-81
2022/01/20 03:17:54;;;;;;;21.30;4.00;;;3.50;99.90;;;;;;4975208;28;20185;-81
2022/01/20 03:20:20;;;;;;;16.20;2.17;;;3.50;99.90;;;;;;4975489;28;20181;-81
2022/01/20 03:22:45;;;;;;;16.27;3.10;;;3.50;99.90;;;;;;4974667;28;20232;-81
2022/01/20 03:25:11;;;;;;;17.00;3.60;;;3.40;99.90;;;;;;4974905;28;20209;-81
2022/01/20 03:27:38;;;;;;;11.05;3.22;;;3.40;99.90;;;;;;4974983;28;20554;-80
2022/01/20 03:30:05;;;;;;;12.95;3.03;;;3.30;99.90;;;;;;4975581;28;20191;-81
2022/01/20 03:32:31;;;;;;;12.27;2.65;;;3.30;99.90;;;;;;4975106;28;20712;-81
2022/01/20 03:34:56;;;;;;;21.93;4.10;;;3.30;99.90;;;;;;4974399;28;20193;-81
2022/01/20 03:37:22;;;;;;;13.73;3.43;;;3.30;99.90;;;;;;4974933;28;20285;-81
2022/01/20 03:39:47;;;;;;;27.03;3.87;;;3.30;99.90;;;;;;4974812;28;20193;-81
2022/01/20 03:42:13;;;;;;;17.07;4.00;;;3.30;99.90;;;;;;4974635;28;20213;-81
2022/01/20 03:44:38;;;;;;;13.43;3.57;;;3.30;99.90;;;;;;4974652;28;20181;-81
2022/01/20 03:47:04;;;;;;;12.10;2.30;;;3.30;99.90;;;;;;4973244;28;20185;-81
2022/01/20 03:49:38;;;;;;;17.60;3.47;;;3.40;99.90;;;;;;4974700;28;20184;-81
2022/01/20 03:52:05;;;;;;;11.38;3.28;;;3.40;99.90;;;;;;4978127;28;20210;-81
2022/01/20 03:54:31;;;;;;;14.25;2.92;;;3.40;99.90;;;;;;4979864;28;20191;-81
2022/01/20 03:56:56;;;;;;;13.43;3.03;;;3.40;99.90;;;;;;4980993;28;20355;-81
2022/01/20 03:59:22;;;;;;;15.40;3.17;;;3.40;99.90;;;;;;4981309;28;20231;-81
2022/01/20 04:01:48;;;;;;;14.20;3.63;;;3.50;99.90;;;;;;4979548;28;20899;-81
2022/01/20 04:04:14;;;;;;;12.10;3.10;;;3.50;99.90;;;;;;4981034;28;20414;-81
2022/01/20 04:06:39;;;;;;;15.57;4.27;;;3.40;99.90;;;;;;4980981;28;20464;-81
2022/01/20 04:09:05;;;;;;;21.33;2.90;;;3.50;99.90;;;;;;4979659;28;20203;-81
2022/01/20 04:11:31;;;;;;;18.05;4.35;;;3.50;99.90;;;;;;4980514;28;20204;-81
2022/01/20 04:13:57;;;;;;;11.70;4.23;;;3.50;99.90;;;;;;4981179;28;20192;-81
2022/01/20 04:16:38;;;;;;;24.05;4.65;;;3.50;99.90;;;;;;4979712;28;20859;-81
2022/01/20 04:19:08;;;;;;;14.02;3.58;;;3.50;99.90;;;;;;4981004;28;20169;-81
2022/01/20 04:21:35;;;;;;;15.25;3.20;;;3.40;99.90;;;;;;4980951;28;20208;-80
2022/01/20 04:24:02;;;;;;;11.80;3.58;;;3.50;99.90;;;;;;4980951;28;20179;-81
2022/01/20 04:26:28;;;;;;;10.00;3.00;;;3.50;99.90;;;;;;4980511;28;20220;-81
2022/01/20 04:28:56;;;;;;;8.98;3.25;;;3.50;99.90;;;;;;4979542;28;20177;-81
2022/01/20 04:31:26;;;;;;;16.90;4.00;;;3.50;99.90;;;;;;4978998;28;20578;-81
2022/01/20 04:33:52;;;;;;;8.15;2.65;;;3.50;99.90;;;;;;4980783;28;20157;-81
2022/01/20 04:36:18;;;;;;;10.63;3.13;;;3.50;99.90;;;;;;4980717;28;20189;-81
2022/01/20 04:38:44;;;;;;;10.25;2.53;;;3.70;99.90;;;;;;4980701;28;20184;-81
2022/01/20 04:41:10;;;;;;;11.43;3.60;;;3.60;99.90;;;;;;4978953;28;20192;-82
2022/01/20 04:43:36;;;;;;;17.73;2.90;;;3.60;99.90;;;;;;4979189;28;20439;-81
2022/01/20 04:46:15;;;;;;;14.15;4.70;;;3.80;99.90;;;;;;4980438;28;20551;-82
2022/01/20 04:59:30;;;;;;;13.10;5.43;;;3.70;99.90;;;;;;4980592;28;20537;-81
2022/01/20 05:01:55;;;;;;;9.27;2.57;;;3.80;99.90;;;;;;4980198;28;20207;-82
2022/01/20 05:04:23;;;;;;;12.67;3.60;;;3.80;99.90;;;;;;4976284;28;20423;-81
2022/01/20 05:06:49;;;;;;;14.50;3.33;;;3.80;99.90;;;;;;4977213;28;20199;-82
2022/01/20 05:09:20;;;;;;;11.65;3.30;;;3.80;99.90;;;;;;4977495;28;20217;-81
2022/01/20 05:11:50;;;;;;;8.35;2.83;;;3.80;99.90;;;;;;4976999;28;20246;-80
2022/01/20 05:14:16;;;;;;;13.45;3.60;;;3.80;99.90;;;;;;4977460;28;20528;-81
2022/01/20 05:16:42;;;;;;;10.70;3.03;;;3.80;99.90;;;;;;4977279;28;20173;-81
2022/01/20 05:19:07;;;;;;;12.67;4.63;;;3.90;99.90;;;;;;4977156;28;20703;-81
2022/01/20 05:21:33;;;;;;;14.47;3.23;;;3.80;99.90;;;;;;4977033;28;20205;-80
2022/01/20 05:23:58;;;;;;;15.83;3.50;;;3.90;99.90;;;;;;4977141;28;20196;-81
2022/01/20 05:26:24;;;;;;;11.00;3.40;;;3.90;99.90;;;;;;4977012;28;20565;-81
2022/01/20 05:28:50;;;;;;;15.03;4.60;;;3.90;99.90;;;;;;4976859;28;20666;-81
2022/01/20 05:31:15;;;;;;;15.47;3.33;;;3.80;99.90;;;;;;4976660;28;20260;-82
2022/01/20 05:33:41;;;;;;;19.67;3.30;;;3.90;99.90;;;;;;4976892;28;20181;-81
2022/01/20 05:36:07;;;;;;;26.80;4.40;;;3.80;99.90;;;;;;4979551;28;20247;-81
2022/01/20 05:38:32;;;;;;;18.00;3.57;;;3.80;99.90;;;;;;4986896;28;20837;-82
2022/01/20 05:40:58;;;;;;;13.10;2.40;;;3.70;99.90;;;;;;4990234;28;20195;-80
2022/01/20 05:43:24;;;;;;;14.53;2.57;;;3.70;99.90;;;;;;4996067;28;20198;-81
2022/01/20 05:45:50;;;;;;;11.47;2.73;;;3.70;99.90;;;;;;4996028;28;20208;-81
2022/01/20 05:48:17;;;;;;;12.75;2.55;;;3.60;99.90;;;;;;4996379;28;20533;-81
2022/01/20 05:50:44;;;;;;;10.15;2.85;;;3.60;99.90;;;;;;4997327;28;20172;-81
2022/01/20 05:53:10;;;;;;;7.28;2.15;;;3.70;99.90;;;;;;4996194;28;20259;-82
2022/01/20 05:55:37;;;;;;;7.25;2.28;;;3.60;99.90;;;;;;4995993;28;20712;-82
2022/01/20 05:58:05;;;;;;;7.32;2.20;;;3.60;99.90;;;;;;4995788;28;20206;-82
2022/01/20 06:00:32;;;;;;;11.98;3.03;;;3.60;99.90;;;;;;4995844;28;20183;-82
2022/01/20 06:05:42;;;;;;;6.45;3.13;;;3.60;99.90;;;;;;4994886;28;20199;-81
2022/01/20 06:08:08;;;;;;;6.77;3.37;;;3.60;99.90;;;;;;4995772;28;20195;-82
2022/01/20 06:10:34;;;;;;;9.25;3.90;;;3.60;99.90;;;;;;4995757;28;20707;-82
2022/01/20 06:13:00;;;;;;;17.93;4.23;;;3.70;99.90;;;;;;4995401;28;20276;-83
2022/01/20 06:15:26;;;;;;;8.88;2.95;;;3.70;99.90;;;;;;4978081;28;20184;-83
2022/01/20 06:17:52;;;;;;;15.13;4.80;;;3.70;99.90;;;;;;4995607;28;20631;-82
2022/01/20 06:20:18;;;;;;;17.23;4.20;;;3.70;99.90;;;;;;4995365;28;20218;-84
2022/01/20 06:22:43;;;;;;;19.03;4.90;;;3.70;99.90;;;;;;4993617;28;20463;-84
2022/01/20 06:25:09;;;;;;;13.60;4.53;;;3.60;99.90;;;;;;4997450;28;20203;-84
2022/01/20 06:27:36;;;;;;;17.45;4.28;;;3.60;99.90;;;;;;4995517;28;20204;-83
2022/01/20 06:30:04;;;;;;;13.95;4.88;;;3.60;99.90;;;;;;4995147;28;20171;-84
2022/01/20 06:32:29;;;;;;;13.10;4.55;;;3.60;99.90;;;;;;4994875;28;20206;-83
2022/01/20 06:34:55;;;;;;;15.00;4.03;;;3.60;99.90;;;;;;4995166;28;20619;-82
2022/01/20 06:37:21;;;;;;;16.98;6.07;;;3.60;99.90;;;;;;4993765;28;20186;-83
2022/01/20 06:39:46;;;;;;;10.00;5.30;;;3.60;99.90;;;;;;4993998;28;20275;-83
2022/01/20 06:42:12;;;;;;;17.17;4.57;;;3.50;99.90;;;;;;4993618;28;20214;-82
2022/01/20 06:44:38;;;;;;;11.83;5.10;;;3.50;99.90;;;;;;4994745;28;20180;-82
2022/01/20 06:47:04;;;;;;;18.17;5.80;;;3.50;99.90;;;;;;4993406;28;20235;-82
2022/01/20 06:49:30;;;;;;;10.80;5.30;;;3.50;99.90;;;;;;4994694;28;20656;-83
2022/01/20 06:51:55;;;;;;;13.07;6.07;;;3.40;99.90;;;;;;4993640;28;20303;-84
2022/01/20 06:54:21;;;;;;;13.50;6.37;;;3.40;99.90;;;;;;4993996;28;20195;-81
2022/01/20 06:56:46;;;;;;;20.17;7.77;;;3.40;99.90;;;;;;4994858;28;20195;-82
2022/01/20 06:59:14;;;;;;;10.73;5.13;;;3.40;99.90;;;;;;4994942;28;20181;-83
2022/01/20 07:01:42;;;;;;;13.15;5.85;;;3.40;99.90;;;;;;4994424;28;20199;-85
2022/01/20 07:04:10;;;;;;;24.83;7.30;;;3.40;99.90;;;;;;4993816;28;20191;-82
2022/01/20 07:06:36;;;;;;;16.55;5.50;;;3.40;99.90;;;;;;4994219;28;20206;-84
2022/01/20 07:09:02;;;;;;;11.68;5.70;;;3.30;99.90;;;;;;4994489;28;20225;-82
2022/01/20 07:11:30;;;;;;;18.45;6.07;;;3.40;99.90;;;;;;4992983;28;20265;-82
2022/01/20 07:13:55;;;;;;;19.58;6.40;;;3.30;99.90;;;;;;4993636;28;20267;-83
2022/01/20 07:16:21;;;;;;;22.60;6.30;;;3.40;99.90;;;;;;4993577;28;20656;-83
2022/01/20 07:18:47;;;;;;;20.30;6.30;;;3.40;99.90;;;;;;4993631;28;20626;-82
2022/01/20 07:21:12;;;;;;;15.60;6.53;;;3.30;99.90;;;;;;4995109;28;20183;-82
2022/01/20 07:23:38;;;;;;;16.23;6.70;;;3.30;99.90;;;;;;4995231;28;20187;-83
2022/01/20 07:26:03;;;;;;;18.90;4.40;;;3.40;99.90;;;;;;4992377;28;20203;-83
2022/01/20 07:28:29;;;;;;;14.43;6.00;;;3.40;99.90;;;;;;4992652;28;20266;-82
2022/01/20 07:30:54;;;;;;;6.63;3.30;;;3.40;99.90;;;;;;4993821;28;20184;-84
2022/01/20 07:33:20;;;;;;;20.67;5.10;;;3.40;99.90;;;;;;4993070;28;20668;-83
2022/01/20 07:35:46;;;;;;;13.85;4.63;;;3.40;99.90;;;;;;4994249;28;20188;-83
2022/01/20 07:38:12;;;;;;;11.13;4.50;;;3.40;99.90;;;;;;4994166;28;20184;-83
2022/01/20 07:40:38;;;;;;;10.47;4.93;;;3.40;99.90;;;;;;4992861;28;20447;-83
2022/01/20 07:43:04;;;;;;;10.63;3.67;;;3.40;99.90;;;;;;4992797;28;20208;-84
2022/01/20 07:45:30;;;;;;;8.63;1.65;;;3.40;99.90;;;;;;4992978;28;20206;-83
2022/01/20 07:47:56;;;;;;;18.58;2.90;;;3.30;99.90;;;;;;4982177;28;20323;-84
2022/01/20 07:50:22;;;;;;;10.70;2.27;;;3.30;99.90;;;;;;4982579;28;20669;-85
2022/01/20 07:52:47;;;;;;;17.50;2.23;;;3.30;99.90;;;;;;4992231;28;20196;-84
2022/01/20 07:55:14;;;;;;;8.20;3.00;;;3.20;99.90;;;;;;4992757;28;20419;-82
2022/01/20 07:57:40;;;;;;;14.85;2.85;;;3.20;99.90;;;;;;4992621;28;20187;-82
2022/01/20 08:00:07;;;;;;;15.83;4.27;;;3.20;99.90;;;;;;4993757;28;20194;-83
2022/01/20 08:02:33;;;;;;;11.70;2.25;;;3.10;99.90;;;;;;4992363;28;20442;-84
2022/01/20 08:04:59;;;;;;;14.53;3.40;;;3.20;99.90;;;;;;4981750;28;20541;-83
2022/01/20 08:07:25;;;;;;;20.23;2.85;;;3.30;99.90;;;;;;4974339;28;20192;-84
2022/01/20 08:09:57;;;;;;;14.73;2.60;;;3.30;99.90;;;;;;4957402;28;20252;-84
2022/01/20 08:12:26;;;;;;;11.07;2.40;;;3.20;99.90;;;;;;4974435;28;20313;-84
2022/01/20 08:14:52;;;;;;;5.38;1.83;;;3.30;99.90;;;;;;4974241;28;20667;-83
2022/01/20 08:17:18;;;;;;;18.25;4.22;;;3.20;99.90;;;;;;4973029;28;20633;-84
2022/01/20 08:19:44;;;;;;;30.63;3.90;;;3.20;99.90;;;;;;4956918;28;20185;-82
2022/01/20 08:22:10;;;;;;;18.47;3.37;;;3.20;99.90;;;;;;4972650;28;20618;-83
2022/01/20 08:24:36;;;;;;;11.23;3.20;;;3.20;99.90;;;;;;4974259;28;20779;-83
2022/01/20 08:27:01;;;;;;;15.00;3.53;;;3.10;99.90;;;;;;4972719;28;20205;-82
2022/01/20 08:29:27;;;;;;;10.50;2.40;;;3.10;99.90;;;;;;4974112;28;20661;-83
2022/01/20 08:31:53;;;;;;;8.70;2.00;;;3.10;99.90;;;;;;4973760;28;20432;-83
2022/01/20 08:34:18;;;;;;;7.53;2.50;;;3.10;99.90;;;;;;4974088;28;20553;-83
2022/01/20 08:36:44;;;;;;;10.83;2.57;;;3.20;99.90;;;;;;4972903;28;20195;-82
2022/01/20 08:41:55;;;;;;;8.10;2.40;;;3.20;99.90;;;;;;4977518;28;20207;-83
2022/01/20 08:44:21;;;;;;;11.23;2.87;;;3.10;99.90;;;;;;4977936;28;20185;-84
2022/01/20 08:46:47;;;;;;;10.30;1.67;;;3.20;99.90;;;;;;4976625;28;20299;-83
2022/01/20 08:49:13;;;;;;;8.43;2.30;;;3.20;99.90;;;;;;4977448;28;20259;-83
2022/01/20 08:51:42;;;;;;;11.53;1.77;;;3.20;99.90;;;;;;4977701;28;20648;-83
2022/01/20 08:54:07;;;;;;;5.28;1.65;;;3.10;99.90;;;;;;4977672;28;20178;-83
2022/01/20 08:56:34;;;;;;;17.30;2.77;;;3.10;99.90;;;;;;4977603;28;20192;-83
2022/01/20 08:59:01;;;;;;;13.32;3.08;;;3.10;99.90;;;;;;4977562;28;20635;-82
2022/01/20 09:01:26;;;;;;;10.48;2.40;;;3.10;99.90;;;;;;4977276;28;20603;-83
2022/01/20 09:03:52;;;;;;;8.87;3.07;;;3.10;99.90;;;;;;4976413;28;20247;-83
2022/01/20 09:06:18;;;;;;;10.37;2.60;;;3.20;99.90;;;;;;4978569;28;20240;-80
2022/01/20 09:08:43;;;;;;;11.83;2.77;;;3.20;99.90;;;;;;4975888;28;20287;-80
2022/01/20 09:11:19;;;;;;;12.87;2.80;;;3.70;99.90;;;;;;4976898;28;20181;-82
2022/01/20 09:16:31;;;;;;;14.43;3.35;;;3.40;99.90;;;;;;4984710;28;20621;-80
2022/01/20 09:18:56;;;;;;;7.17;3.47;;;3.50;99.90;;;;;;4994059;28;20216;-82
2022/01/20 09:21:23;;;;;;;18.07;3.70;;;3.60;99.90;;;;;;4996577;28;20227;-82
2022/01/20 09:23:50;;;;;;;19.73;4.15;;;3.50;99.90;;;;;;4996375;28;20186;-80
2022/01/20 09:26:16;;;;;;;8.32;2.55;;;3.60;99.90;;;;;;4996415;28;20206;-81
2022/01/20 09:28:42;;;;;;;8.13;2.15;;;3.60;99.90;;;;;;4995159;28;20235;-81
2022/01/20 09:31:09;;;;;;;9.52;2.78;;;3.50;99.90;;;;;;4994797;28;20225;-82
2022/01/20 09:33:35;;;;;;;10.15;3.10;;;3.20;99.90;;;;;;4996508;28;20209;-82
2022/01/20 09:36:01;;;;;;;13.05;3.03;;;3.00;99.90;;;;;;4996500;28;20176;-82
2022/01/20 09:38:28;;;;;;;14.23;3.20;;;3.00;99.90;;;;;;4995397;28;20667;-82
2022/01/20 09:40:54;;;;;;;5.75;2.60;;;3.10;99.90;;;;;;4997966;28;20411;-82
2022/01/20 09:43:20;;;;;;;12.82;2.08;;;3.10;99.90;;;;;;4997579;28;20207;-83
2022/01/20 09:45:50;;;;;;;12.23;2.13;;;3.10;99.90;;;;;;4996069;28;20203;-82
2022/01/20 09:48:16;;;;;;;5.18;1.38;;;3.10;99.90;;;;;;4996369;28;20178;-81
2022/01/20 09:50:43;;;;;;;3.88;1.45;;;3.10;99.90;;;;;;4995544;28;20214;-81
2022/01/20 09:53:09;;;;;;;28.70;3.42;;;3.10;99.90;;;;;;4995967;28;20196;-81
2022/01/20 09:55:35;;;;;;;9.40;2.13;;;3.00;99.90;;;;;;4995859;28;20183;-82
2022/01/20 09:58:05;;;;;;;2.95;1.52;;;3.00;99.90;;;;;;4978561;28;20738;-81
2022/01/20 10:00:32;;;;;;;5.75;1.30;;;3.10;99.90;;;;;;4995982;28;20303;-80
2022/01/20 10:03:10;;;;;;;7.13;2.38;;;3.30;99.90;;;;;;4995221;28;20208;-80
2022/01/20 10:05:43;;;;;;;8.45;1.90;;;3.60;99.90;;;;;;4995557;28;20344;-81
2022/01/20 10:08:21;;;;;;;7.30;1.80;;;3.80;99.90;;;;;;4994336;28;20200;-79
2022/01/20 10:10:57;;;;;;;6.13;2.10;;;4.10;99.90;;;;;;4995334;28;20178;-81
2022/01/20 10:13:29;;;;;;;11.27;2.00;;;4.30;99.90;;;;;;4995711;28;20172;-79
2022/01/20 10:16:10;;;;;;;6.75;2.42;;;4.30;99.90;;;;;;4995406;28;20180;-80
2022/01/20 10:18:48;;;;;;;15.60;2.50;;;4.30;99.90;;;;;;4995454;28;20183;-81
2022/01/20 10:21:14;;;;;;;7.28;2.28;;;4.20;99.90;;;;;;4994973;28;20168;-79
2022/01/20 10:23:43;;;;;;;6.75;1.52;;;4.10;99.90;;;;;;4981116;28;20207;-81
2022/01/20 10:26:26;;;;;;;11.95;1.85;;;4.20;99.90;;;;;;4978185;28;20243;-81
2022/01/20 10:29:00;;;;;;;10.88;2.20;;;4.20;99.90;;;;;;4975622;28;20173;-79
2022/01/20 10:31:40;;;;;;;7.45;2.67;;;4.20;99.90;;;;;;4975330;28;20208;-81
2022/01/20 10:34:35;;;;;;;9.55;2.20;;;4.20;99.90;;;;;;4975476;28;20205;-80
2022/01/20 10:37:14;;;;;;;10.55;2.33;;;4.10;99.90;;;;;;4975553;28;20177;-79
2022/01/20 10:39:44;;;;;;;8.82;2.30;;;4.10;99.90;;;;;;4976824;28;20657;-81
2022/01/20 10:42:17;;;;;;;8.32;2.40;;;4.10;99.90;;;;;;4983173;28;20197;-80
2022/01/20 10:44:47;;;;;;;5.60;2.30;;;3.90;99.90;;;;;;4985906;28;20172;-80
2022/01/20 10:47:14;;;;;;;14.82;7.22;;;3.70;99.90;;;;;;4988718;28;20255;-82
2022/01/20 10:49:40;;;;;;;11.38;3.40;;;3.90;99.90;;;;;;4981370;28;20613;-80
2022/01/20 10:52:08;;;;;;;4.93;2.60;;;3.80;99.90;;;;;;4984781;28;20211;-80
2022/01/20 10:54:48;;;;;;;18.15;3.85;;;3.70;99.90;;;;;;4983245;28;20283;-80
2022/01/20 10:57:16;;;;;;;11.95;3.60;;;3.70;99.90;;;;;;4987820;28;20242;-79
2022/01/20 10:59:57;;;;;;;8.68;3.55;;;3.60;99.90;;;;;;4985617;28;20699;-80
2022/01/20 11:02:27;;;;;;;8.95;4.70;;;3.60;99.90;;;;;;4982949;28;20204;-80
2022/01/20 11:04:53;;;;;;;13.75;4.32;;;3.50;99.90;;;;;;4988072;28;20172;-80
2022/01/20 11:07:20;;;;;;;15.65;3.97;;;3.60;99.90;;;;;;4982426;28;20200;-80
2022/01/20 11:09:51;;;;;;;10.00;2.92;;;3.70;99.90;;;;;;4982827;28;20188;-79
2022/01/20 11:12:17;;;;;;;9.60;3.30;;;3.70;99.90;;;;;;4983091;28;20251;-80
2022/01/20 11:14:45;;;;;;;10.52;3.28;;;3.70;99.90;;;;;;4985749;28;20176;-80
2022/01/20 11:17:23;;;;;;;14.13;4.13;;;3.80;99.90;;;;;;4983094;28;20283;-80
2022/01/20 11:19:50;;;;;;;12.90;2.53;;;3.70;99.90;;;;;;4993228;28;20187;-81
2022/01/20 11:22:18;;;;;;;17.02;3.85;;;3.70;99.90;;;;;;4993898;28;20200;-79
2022/01/20 11:24:43;;;;;;;331.23;169.52;;;3.70;99.90;;;;;;4994113;28;20520;-80
2022/01/20 11:27:14;;;;;;;14.87;4.07;;;3.50;99.90;;;;;;4992952;28;20238;-80
2022/01/20 11:29:41;;;;;;;13.32;4.00;;;3.40;99.90;;;;;;4992749;28;20510;-81
2022/01/20 11:32:23;;;;;;;13.57;3.00;;;3.30;99.90;;;;;;4993704;28;20203;-81
2022/01/20 11:35:00;;;;;;;26.70;4.70;;;3.30;99.90;;;;;;4994000;28;20643;-80
2022/01/20 11:37:28;;;;;;;10.20;4.45;;;3.30;99.90;;;;;;4994256;28;20183;-81
2022/01/20 11:40:05;;;;;;;97.38;48.15;;;3.40;99.90;;;;;;4993924;28;20215;-81
2022/01/20 11:42:31;;;;;;;18.88;6.78;;;3.30;99.90;;;;;;4982033;28;20570;-83
2022/01/20 11:44:57;;;;;;;11.93;3.63;;;2.80;99.90;;;;;;4973364;28;20173;-85
2022/01/20 11:47:31;;;;;;;9.67;3.70;;;2.50;99.90;;;;;;4973488;28;20180;-86
2022/01/20 11:49:57;;;;;;;12.52;2.78;;;2.20;99.90;;;;;;4973451;28;20173;-85
2022/01/20 11:52:27;;;;;;;14.33;2.50;;;2.00;99.90;;;;;;4974232;28;20201;-86
2022/01/20 11:54:53;;;;;;;14.70;3.08;;;1.90;99.90;;;;;;4974919;28;20187;-85
2022/01/20 11:57:30;;;;;;;8.37;2.53;;;1.90;99.90;;;;;;4974535;28;20666;-85
2022/01/20 12:00:00;;;;;;;13.13;2.60;;;1.90;99.90;;;;;;4974615;28;20219;-84
2022/01/20 12:02:38;;;;;;;8.45;2.53;;;1.90;99.90;;;;;;4974179;28;20689;-84
2022/01/20 12:05:18;;;;;;;7.80;2.60;;;1.90;99.90;;;;;;4974263;28;20204;-84
2022/01/20 12:07:45;;;;;;;8.00;2.42;;;1.90;99.90;;;;;;4974276;28;20219;-83
2022/01/20 12:10:14;;;;;;;5.07;2.65;;;2.00;99.90;;;;;;4974387;28;20248;-82
2022/01/20 12:12:41;;;;;;;5.32;3.17;;;2.20;99.90;;;;;;4975152;28;20208;-83
2022/01/20 12:15:14;;;;;;;9.15;3.83;;;2.50;99.90;;;;;;4976946;28;20176;-83
2022/01/20 12:17:47;;;;;;;8.88;2.15;;;3.00;99.90;;;;;;4978188;28;20180;-83
2022/01/20 12:20:12;;;;;;;6.45;1.63;;;3.30;99.90;;;;;;4978159;28;20169;-82
2022/01/20 12:22:40;;;;;;;12.63;2.17;;;3.60;99.90;;;;;;4976563;28;20208;-84
2022/01/20 12:25:06;;;;;;;6.50;1.90;;;3.90;99.90;;;;;;4976891;28;20189;-81
2022/01/20 12:27:32;;;;;;;7.43;2.33;;;4.10;99.90;;;;;;4976873;28;20212;-82
2022/01/20 12:29:58;;;;;;;14.10;3.70;;;4.40;99.90;;;;;;4977974;28;20203;-82
2022/01/20 12:32:25;;;;;;;9.80;2.60;;;4.60;99.90;;;;;;4976646;28;20448;-82
2022/01/20 12:35:02;;;;;;;11.63;2.55;;;4.80;99.90;;;;;;4977806;28;20519;-82
2022/01/20 12:37:36;;;;;;;8.52;2.38;;;4.80;99.90;;;;;;4977917;28;20172;-82
2022/01/20 12:40:02;;;;;;;8.13;2.20;;;5.00;99.90;;;;;;4976571;28;20546;-81
2022/01/20 12:42:38;;;;;;;13.38;2.28;;;5.10;99.90;;;;;;4977273;28;20300;-82
2022/01/20 12:45:55;;;;;;;9.27;2.13;;;5.30;99.90;;;;;;4976684;28;20192;-80
2022/01/20 12:47:50;;;;;;;6.50;1.92;;;5.10;99.90;;;;;;4977534;28;20267;-81
2022/01/20 12:50:15;;;;;;;11.40;3.70;;;5.10;99.90;;;;;;4977647;28;20269;-82
2022/01/20 12:52:48;;;;;;;7.33;1.97;;;5.10;99.90;;;;;;4990904;28;20523;-80
2022/01/20 12:55:14;;;;;;;4.43;2.67;;;5.00;99.90;;;;;;4996915;28;20649;-80
2022/01/20 12:57:41;;;;;;;19.67;3.07;;;5.00;99.90;;;;;;4996932;28;20187;-80
2022/01/20 13:00:08;;;;;;;6.20;1.95;;;5.00;99.90;;;;;;4995764;28;20556;-80
2022/01/20 13:02:34;;;;;;;11.48;2.90;;;5.00;99.90;;;;;;4995588;28;20200;-80
2022/01/20 13:05:03;;;;;;;7.25;2.00;;;4.90;99.90;;;;;;4979099;28;20211;-80
2022/01/20 13:07:30;;;;;;;5.70;1.50;;;5.00;99.90;;;;;;4995403;28;20242;-79
2022/01/20 13:10:03;;;;;;;9.57;2.40;;;5.10;99.90;;;;;;4996874;28;20172;-78
2022/01/20 13:12:39;;;;;;;10.73;2.15;;;5.00;99.90;;;;;;4996787;28;20196;-80
2022/01/20 13:15:17;;;;;;;13.88;1.85;;;5.10;99.90;;;;;;4996742;28;20199;-80
2022/01/20 13:17:45;;;;;;;12.82;2.38;;;5.30;99.90;;;;;;4995702;28;20176;-82
2022/01/20 13:20:19;;;;;;;6.97;1.75;;;5.50;99.90;;;;;;4979513;28;20184;-81
2022/01/20 13:22:54;;;;;;;10.13;2.20;;;5.80;99.90;;;;;;4996429;28;20558;-81
2022/01/20 13:25:24;;;;;;;14.43;2.53;;;6.00;99.90;;;;;;4979737;28;20203;-80
2022/01/20 13:27:56;;;;;;;8.90;1.80;;;6.10;99.90;;;;;;4995345;28;20180;-81
2022/01/20 13:30:47;;;;;;;4.63;1.77;;;6.10;99.90;;;;;;4995324;28;20212;-81
2022/01/20 13:33:23;;;;;;;9.35;2.33;;;5.60;99.90;;;;;;4997282;28;20211;-81
2022/01/20 13:35:56;;;;;;;6.55;2.03;;;5.50;99.90;;;;;;4997495;28;20211;-81
2022/01/20 13:38:30;;;;;;;7.72;1.60;;;5.30;99.90;;;;;;4995738;28;20183;-79
2022/01/20 13:41:13;;;;;;;11.43;2.28;;;5.30;99.90;;;;;;4979205;28;20207;-79
2022/01/20 13:46:38;;;;;;;5.47;1.23;;;5.10;99.90;;;;;;4997367;28;20686;-80
2022/01/20 13:49:30;;;;;;;4.32;1.88;;;5.20;99.90;;;;;;4998008;28;20284;-80
2022/01/20 13:52:07;;;;;;;6.63;1.60;;;5.10;99.90;;;;;;4993818;28;20215;-80
2022/01/20 13:54:42;;;;;;;7.60;2.13;;;5.00;99.90;;;;;;4997321;28;20238;-79
2022/01/20 13:57:08;;;;;;;5.40;1.63;;;4.90;99.90;;;;;;4996372;28;20237;-80
2022/01/20 13:59:33;;;;;;;3.47;1.35;;;4.90;99.90;;;;;;4996243;28;20184;-79
2022/01/20 14:01:59;;;;;;;5.90;2.03;;;4.80;99.90;;;;;;4978300;28;20206;-79
2022/01/20 14:04:26;;;;;;;5.10;1.40;;;4.70;99.90;;;;;;4995793;28;20573;-81
2022/01/20 14:06:52;;;;;;;9.80;1.92;;;4.70;99.90;;;;;;4995533;28;20469;-81
2022/01/20 14:09:17;;;;;;;12.60;1.93;;;4.70;99.90;;;;;;4994672;28;20266;-81
2022/01/20 14:11:45;;;;;;;7.43;2.47;;;4.50;99.90;;;;;;4993766;28;20443;-80
2022/01/20 14:14:11;;;;;;;9.98;2.35;;;4.40;99.90;;;;;;4995651;28;20169;-81
2022/01/20 14:16:38;;;;;;;9.40;1.92;;;4.30;99.90;;;;;;4994465;28;20231;-80
2022/01/20 14:19:06;;;;;;;10.77;2.38;;;4.20;99.90;;;;;;4996416;28;20641;-80